| Date | Time | Temp. (oF) | Dew Point (oF) | Rel. Hum. (%) | Press. (in.) | Wind Dir. | Wind Speed (mph) | Hourly Rainfall (in.) |
|
|---|---|---|---|---|---|---|---|---|---|
| 1 | 04/08 | 00:00 | 47 | 45 | 93 | 30.22 | NE | 7 | 0.00 |
| 2 | 04/07 | 23:00 | 48 | 45 | 92 | 30.21 | E | 10 | 0.00 |
| 3 | 04/07 | 22:00 | 50 | 47 | 92 | 30.19 | SE | 13 | 0.00 |
| 4 | 04/07 | 21:00 | 51 | 49 | 93 | 30.17 | ENE | 8 | 0.00 |
| 5 | 04/07 | 20:00 | 53 | 51 | 93 | 30.14 | E | 5 | 0.01 |
| 6 | 04/07 | 19:00 | 56 | 53 | 91 | 30.12 | ENE | 5 | 0.09 |
| 7 | 04/07 | 18:00 | 65 | 57 | 78 | 30.09 | E | 3 | 0.00 |
| 8 | 04/07 | 17:00 | 68 | 55 | 65 | 30.08 | E | 1 | 0.00 |
| 9 | 04/07 | 16:00 | 69 | 56 | 65 | 30.07 | SE | 2 | 0.00 |
| 10 | 04/07 | 15:00 | 69 | 55 | 62 | 30.08 | ESE | 3 | 0.00 |
| 11 | 04/07 | 14:00 | 68 | 55 | 64 | 30.10 | SSE | 0 | 0.00 |
| 12 | 04/07 | 13:00 | 69 | 54 | 59 | 30.10 | SSE | 2 | 0.00 |
| 13 | 04/07 | 12:00 | 65 | 53 | 66 | 30.13 | NNE | 3 | 0.00 |
| 14 | 04/07 | 11:00 | 63 | 53 | 70 | 30.15 | S | 0 | 0.00 |
| 15 | 04/07 | 10:00 | 60 | 50 | 71 | 30.15 | S | 3 | 0.00 |
| 16 | 04/07 | 09:00 | 59 | 50 | 74 | 30.14 | SSW | 0 | 0.00 |
| 17 | 04/07 | 08:00 | 55 | 48 | 79 | 30.13 | NNE | 0 | 0.00 |
| 18 | 04/07 | 07:00 | 56 | 48 | 76 | 30.12 | NNW | 0 | 0.00 |
| 19 | 04/07 | 06:00 | 56 | 47 | 74 | 30.11 | SE | 0 | 0.00 |
| 20 | 04/07 | 05:00 | 57 | 47 | 71 | 30.10 | S | 4 | 0.00 |
| 21 | 04/07 | 04:00 | 58 | 47 | 67 | 30.10 | SSW | 5 | 0.00 |
| 22 | 04/07 | 03:00 | 58 | 47 | 67 | 30.10 | SSW | 7 | 0.00 |
| 23 | 04/07 | 02:00 | 58 | 47 | 67 | 30.10 | SW | 4 | 0.00 |
| 24 | 04/07 | 01:00 | 57 | 45 | 66 | 30.11 | SW | 4 | 0.00 |